Milo, Missouri
Current Conditions -  °F | °C
As of 8:15 AM on Thursday 27 Nov 2014 (Local Time) from KPTS Reporting Station
Clear Clear  
Wind Chill: 26°   Ceiling: Unl
Heat Index: 26°   Visibility: 7mi
Dew Point: 25°   Wind: 0mph
Humidity: 96%   Direction: NA
Pressure: 30.52"   Gusts: NA
Location:  37.76°N, 94.31°W
Report Text: KPTS 271415Z AUTO 00000KT 7SM CLR M03/M04 A3052 RMK AO2 T10311037
Loading
Personal Weather Stations






























Interactive Weather Map New forecast layout! Learn more

10-Day Weather Forecast

Advertisements
Track Severe Weather on mobile